Time;durP1;ratioP1;P1;durP2;ratioP2;P2;SDS_P1;SDS_P2;PMS_P1;PMS_P2;Temp;Humidity;BMP_temperature;BMP_pressure;BME280_temperature;BME280_humidity;BME280_pressure;Samples;Min_cycle;Max_cycle;Signal;HPM_P1;HPM_P2
2021/09/27 00:01:25;;;;;;;25.98;13.43;;;;;;;18.03;54.01;99806.75;5011793;28;20452;-70
2021/09/27 00:03:51;;;;;;;20.92;13.13;;;;;;;17.86;54.00;99810.03;5011587;28;20113;-70
2021/09/27 00:06:17;;;;;;;23.73;12.88;;;;;;;17.90;53.55;99806.09;5009736;28;20117;-70
2021/09/27 00:08:42;;;;;;;21.50;13.95;;;;;;;17.80;53.38;99801.06;5006076;28;20030;-70
2021/09/27 00:11:15;;;;;;;20.17;12.75;;;;;;;17.79;53.31;99805.06;5011730;28;20037;-70
2021/09/27 00:13:42;;;;;;;22.65;13.10;;;;;;;17.30;54.98;99806.56;5007225;28;20033;-70
2021/09/27 00:16:09;;;;;;;23.85;12.13;;;;;;;17.22;55.93;99808.44;5007308;28;20037;-70
2021/09/27 00:18:35;;;;;;;22.80;12.93;;;;;;;17.29;55.45;99816.25;5015415;28;20036;-70
2021/09/27 00:21:04;;;;;;;17.83;12.02;;;;;;;16.78;57.33;99813.13;5012921;28;20068;-70
2021/09/27 00:23:33;;;;;;;21.63;13.55;;;;;;;16.79;57.31;99816.78;5012411;28;20064;-70
2021/09/27 00:25:59;;;;;;;20.70;12.55;;;;;;;17.13;56.54;99817.13;5002790;28;20033;-70
2021/09/27 00:28:25;;;;;;;18.52;11.75;;;;;;;17.14;56.67;99818.78;5010765;28;20092;-70
2021/09/27 00:30:51;;;;;;;18.95;11.05;;;;;;;17.19;56.91;99815.66;5010527;28;20026;-70
2021/09/27 00:33:18;;;;;;;19.30;10.13;;;;;;;17.24;57.12;99823.03;5008020;28;20420;-70
2021/09/27 00:35:44;;;;;;;61.00;26.23;;;;;;;17.02;57.83;99813.28;5009274;28;20036;-70
2021/09/27 00:38:10;;;;;;;36.63;18.60;;;;;;;16.93;58.11;99808.63;5005754;28;20026;-70
2021/09/27 00:40:42;;;;;;;25.15;12.07;;;;;;;16.90;58.41;99815.03;5004896;28;21903;-71
2021/09/27 00:43:09;;;;;;;16.83;9.13;;;;;;;16.77;58.57;99807.84;5002607;28;20054;-71
2021/09/27 00:45:42;;;;;;;15.35;8.38;;;;;;;16.64;58.92;99805.13;5019932;28;20041;-71
2021/09/27 00:48:09;;;;;;;18.27;9.18;;;;;;;16.67;59.07;99810.06;5005229;28;20092;-71
2021/09/27 00:50:39;;;;;;;23.73;10.07;;;;;;;16.64;59.12;99802.31;5008217;28;20040;-71
2021/09/27 00:53:10;;;;;;;12.68;9.32;;;;;;;16.27;60.18;99800.66;5010842;28;20029;-71
2021/09/27 00:55:36;;;;;;;22.30;10.50;;;;;;;16.32;59.96;99802.41;4999639;28;20030;-71
2021/09/27 00:58:03;;;;;;;20.90;10.40;;;;;;;16.46;59.61;99806.75;5011639;28;20428;-71
2021/09/27 01:00:28;;;;;;;44.05;15.43;;;;;;;16.30;60.11;99804.78;5009700;28;20104;-71
2021/09/27 01:02:55;;;;;;;26.50;12.82;;;;;;;16.26;60.15;99809.50;5010791;28;20473;-71
2021/09/27 01:05:22;;;;;;;31.63;10.82;;;;;;;16.30;60.04;99804.78;5011789;28;20025;-71
2021/09/27 01:08:32;;;;;;;20.50;11.32;;;;;;;16.26;60.14;99803.84;5001114;28;20034;-71
2021/09/27 01:11:14;;;;;;;32.17;14.50;;;;;;;16.19;59.87;99807.31;4986674;28;20037;-70
2021/09/27 01:13:58;;;;;;;17.20;9.02;;;;;;;15.84;60.93;99799.53;4971892;28;20514;-69
2021/09/27 01:16:33;;;;;;;18.52;7.65;;;;;;;15.90;61.25;99803.78;4997412;28;20100;-69
2021/09/27 01:19:04;;;;;;;25.50;10.57;;;;;;;15.80;61.58;99801.47;5010768;28;20025;-69
2021/09/27 01:21:44;;;;;;;45.33;17.50;;;;;;;15.86;61.83;99823.41;5011811;28;20057;-69
2021/09/27 01:24:34;;;;;;;61.95;24.17;;;;;;;15.68;62.06;99820.09;5011564;28;20037;-69
2021/09/27 01:27:33;;;;;;;60.33;21.67;;;;;;;15.90;61.62;99808.59;5010763;28;20132;-69
2021/09/27 01:30:26;;;;;;;55.17;21.13;;;;;;;15.82;62.19;99818.84;5007460;28;20586;-69
2021/09/27 01:33:22;;;;;;;44.78;19.33;;;;;;;15.85;62.15;99824.56;5010207;28;20092;-69
2021/09/27 01:35:59;;;;;;;47.92;19.40;;;;;;;15.82;62.11;99816.84;5008174;28;20032;-69
2021/09/27 01:38:56;;;;;;;17.70;10.00;;;;;;;15.78;62.21;99818.75;5005863;28;20053;-69
2021/09/27 01:41:54;;;;;;;15.93;9.80;;;;;;;15.85;61.97;99818.09;5006115;28;20033;-69
2021/09/27 01:44:34;;;;;;;49.83;20.30;;;;;;;16.04;61.62;99808.94;4998507;28;20162;-69
2021/09/27 01:47:07;;;;;;;29.27;13.55;;;;;;;16.20;60.82;99810.97;5005225;28;20032;-69
2021/09/27 01:50:03;;;;;;;16.15;7.95;;;;;;;16.20;60.46;99813.78;5003473;28;20038;-69
2021/09/27 01:52:42;;;;;;;10.88;7.88;;;;;;;16.04;60.48;99803.31;5007776;28;20034;-69
2021/09/27 01:55:22;;;;;;;14.60;8.60;;;;;;;15.75;60.98;99808.19;4991877;28;20707;-69
2021/09/27 01:57:59;;;;;;;10.15;8.05;;;;;;;15.76;61.16;99815.47;4997087;28;20026;-69
2021/09/27 02:00:47;;;;;;;14.95;8.90;;;;;;;15.60;61.44;99815.44;4993321;28;20034;-69
2021/09/27 02:03:31;;;;;;;19.60;13.30;;;;;;;15.76;60.83;99815.47;4993918;28;20112;-69
2021/09/27 02:06:02;;;;;;;29.17;16.70;;;;;;;15.58;61.34;99821.44;4994784;28;20024;-69
2021/09/27 02:09:12;;;;;;;32.15;18.17;;;;;;;15.41;61.59;99814.13;5001462;28;20527;-70
2021/09/27 02:11:43;;;;;;;25.02;16.02;;;;;;;15.30;62.10;99819.44;5001436;28;20056;-70
2021/09/27 02:14:28;;;;;;;;;;;;;;;15.45;61.73;99814.25;5000181;28;20137;-70
2021/09/27 02:17:02;;;;;;;56.60;26.65;;;;;;;15.50;61.73;99819.59;5008666;28;20007;-70
2021/09/27 02:19:33;;;;;;;46.72;22.55;;;;;;;15.58;61.33;99818.63;5001547;28;20103;-72
2021/09/27 02:22:27;;;;;;;33.13;19.42;;;;;;;15.56;61.25;99818.16;4994936;28;20037;-70
2021/09/27 02:25:13;;;;;;;29.02;16.20;;;;;;;15.44;61.67;99815.41;4978292;28;20064;-70
2021/09/27 02:27:40;;;;;;;22.52;15.82;;;;;;;15.30;62.38;99822.28;5002605;28;20109;-70
2021/09/27 02:30:09;;;;;;;23.85;14.95;;;;;;;15.43;61.88;99825.03;5010739;28;20452;-70
2021/09/27 02:32:56;;;;;;;24.67;13.10;;;;;;;15.54;61.47;99814.88;5010401;28;20037;-70
2021/09/27 02:35:27;;;;;;;21.48;12.68;;;;;;;15.63;61.36;99811.91;5004894;28;20113;-70
2021/09/27 02:38:21;;;;;;;20.98;10.68;;;;;;;15.69;61.05;99810.47;5003855;28;20045;-70
2021/09/27 02:40:56;;;;;;;20.08;11.38;;;;;;;15.78;60.67;99813.09;5005928;28;20474;-70
2021/09/27 02:43:23;;;;;;;16.90;11.00;;;;;;;15.67;61.09;99823.28;4998498;28;20056;-70
2021/09/27 02:45:48;;;;;;;15.60;10.30;;;;;;;15.55;61.36;99827.78;5002979;28;20026;-70
2021/09/27 02:48:18;;;;;;;12.52;8.82;;;;;;;15.57;61.13;99816.16;5005661;28;20044;-70
2021/09/27 02:50:49;;;;;;;13.80;9.60;;;;;;;15.79;61.12;99814.72;5002876;28;20037;-70
2021/09/27 02:53:16;;;;;;;67.38;37.45;;;;;;;15.65;60.74;99809.56;5017010;28;20463;-70
2021/09/27 02:56:14;;;;;;;50.95;32.40;;;;;;;15.35;61.50;99814.75;5001143;28;20132;-70
2021/09/27 02:58:53;;;;;;;21.17;12.07;;;;;;;15.23;61.38;99819.25;4999314;28;20511;-70
2021/09/27 03:01:38;;;;;;;17.27;11.32;;;;;;;14.93;62.08;99813.16;5010693;28;20037;-70
2021/09/27 03:04:25;;;;;;;15.73;11.70;;;;;;;14.86;62.09;99814.56;4998128;28;20421;-70
2021/09/27 03:07:12;;;;;;;20.83;12.25;;;;;;;14.82;62.33;99812.81;5011619;28;20033;-70
2021/09/27 03:09:40;;;;;;;26.27;13.02;;;;;;;14.82;62.66;99815.63;5010694;28;20555;-70
2021/09/27 03:12:17;;;;;;;21.88;13.32;;;;;;;14.61;62.46;99819.41;5013779;28;20022;-70
2021/09/27 03:15:08;;;;;;;22.55;14.07;;;;;;;14.72;62.38;99831.84;5013679;28;20036;-70
2021/09/27 03:17:45;;;;;;;18.65;13.25;;;;;;;14.90;61.90;99830.72;5008133;28;20061;-70
2021/09/27 03:20:39;;;;;;;19.65;12.60;;;;;;;14.81;62.17;99825.25;5009201;28;20022;-70
2021/09/27 03:23:51;;;;;;;24.50;14.02;;;;;;;14.51;63.27;99825.50;5013654;28;20022;-70
2021/09/27 03:26:45;;;;;;;24.85;16.70;;;;;;;14.60;63.37;99823.41;4996792;28;20443;-70
2021/09/27 03:29:23;;;;;;;44.10;20.38;;;;;;;14.44;63.72;99821.28;5006380;28;20128;-70
2021/09/27 03:31:54;;;;;;;52.40;25.98;;;;;;;14.39;63.72;99821.53;5003555;28;20455;-70
2021/09/27 03:34:40;;;;;;;50.20;29.60;;;;;;;14.31;64.33;99814.03;5010306;28;20034;-70
2021/09/27 03:37:33;;;;;;;71.95;33.58;;;;;;;14.07;64.83;99812.84;5012277;28;20130;-70
2021/09/27 03:40:08;;;;;;;59.10;31.98;;;;;;;14.10;64.90;99812.13;5012147;28;20025;-70
2021/09/27 03:42:38;;;;;;;49.05;28.25;;;;;;;14.04;64.71;99813.53;5013383;28;20060;-70
2021/09/27 03:45:07;;;;;;;53.35;26.50;;;;;;;13.88;65.02;99814.25;5006098;28;20365;-70
2021/09/27 03:47:45;;;;;;;47.42;27.40;;;;;;;13.81;65.46;99821.59;5012957;28;20030;-70
2021/09/27 03:50:44;;;;;;;42.03;24.60;;;;;;;13.76;65.38;99829.09;5015458;28;20055;-70
2021/09/27 03:53:14;;;;;;;47.03;23.73;;;;;;;13.79;65.60;99830.38;5008415;28;20041;-70
2021/09/27 03:55:45;;;;;;;41.50;24.15;;;;;;;13.45;66.70;99846.44;5015177;28;20017;-69
2021/09/27 03:58:16;;;;;;;48.92;25.77;;;;;;;13.44;66.67;99847.59;5012928;28;20018;-69
2021/09/27 04:00:49;;;;;;;56.88;24.95;;;;;;;13.54;66.82;99852.81;5013089;28;20113;-69
2021/09/27 04:03:41;;;;;;;43.42;24.55;;;;;;;13.33;67.11;99861.22;5012773;28;20192;-69
2021/09/27 04:06:44;;;;;;;51.40;22.73;;;;;;;13.31;66.95;99850.34;5011588;28;20026;-69
2021/09/27 04:09:43;;;;;;;32.92;17.73;;;;;;;13.08;67.87;99841.44;5012099;28;20032;-69
2021/09/27 04:12:20;;;;;;;33.83;17.67;;;;;;;13.23;67.52;99851.22;5011723;28;20029;-69
2021/09/27 04:15:22;;;;;;;32.13;15.82;;;;;;;13.25;67.87;99850.91;5004058;28;20112;-69
2021/09/27 04:18:09;;;;;;;26.90;14.98;;;;;;;13.44;67.38;99859.66;5004176;28;20033;-69
2021/09/27 04:21:06;;;;;;;41.95;16.13;;;;;;;13.28;68.33;99853.84;5002194;28;20682;-69
2021/09/27 04:23:37;;;;;;;34.55;16.10;;;;;;;13.46;67.91;99851.72;5001543;28;20099;-69
2021/09/27 04:26:33;;;;;;;30.73;14.00;;;;;;;13.75;66.77;99855.56;4998098;28;20022;-69
2021/09/27 04:29:34;;;;;;;20.52;10.90;;;;;;;13.62;67.21;99865.13;4999581;28;20052;-69
2021/09/27 04:32:30;;;;;;;17.25;10.88;;;;;;;13.52;68.11;99860.75;4999820;28;20026;-69
2021/09/27 04:34:58;;;;;;;16.58;11.77;;;;;;;13.65;67.99;99855.19;4997675;28;20045;-69
2021/09/27 04:37:24;;;;;;;20.13;10.27;;;;;;;13.72;67.53;99863.84;5012361;28;20095;-69
2021/09/27 04:39:51;;;;;;;21.15;9.98;;;;;;;13.59;67.96;99861.00;5010969;28;20033;-69
2021/09/27 04:42:55;;;;;;;20.00;10.55;;;;;;;13.70;67.67;99867.03;5009532;28;20045;-69
2021/09/27 04:45:37;;;;;;;17.88;10.30;;;;;;;13.65;67.76;99869.25;5009355;28;20033;-69
2021/09/27 04:48:38;;;;;;;18.88;9.85;;;;;;;13.58;67.49;99862.19;5009176;28;20061;-69
2021/09/27 04:51:19;;;;;;;;;;;;;;;13.73;67.14;99860.72;5011098;28;20018;-69
2021/09/27 04:54:17;;;;;;;17.33;9.00;;;;;;;13.84;66.52;99861.06;5027427;28;19917;-69
2021/09/27 04:57:04;;;;;;;53.13;12.80;;;;;;;13.92;66.69;99864.94;5011705;28;20029;-70
2021/09/27 04:59:59;;;;;;;32.60;12.43;;;;;;;14.06;66.49;99867.44;5010070;28;20080;-70
2021/09/27 05:02:33;;;;;;;27.90;10.68;;;;;;;14.22;66.01;99863.94;4996551;28;20539;-70
2021/09/27 05:04:58;;;;;;;33.55;11.43;;;;;;;14.27;65.82;99866.53;4998609;28;20033;-70
2021/09/27 05:07:42;;;;;;;21.17;10.68;;;;;;;14.41;65.88;99872.66;5005779;28;20029;-70
2021/09/27 05:10:26;;;;;;;19.73;10.23;;;;;;;14.50;65.78;99864.06;5011089;28;20242;-70
2021/09/27 05:12:54;;;;;;;25.55;10.55;;;;;;;14.63;65.48;99861.25;4998354;28;20030;-70
2021/09/27 05:15:45;;;;;;;14.65;10.15;;;;;;;14.51;66.27;99865.72;5005207;28;20030;-70
2021/09/27 05:18:24;;;;;;;20.42;9.93;;;;;;;14.79;65.72;99861.38;5005205;28;20497;-71
2021/09/27 05:21:02;;;;;;;38.08;16.65;;;;;;;14.97;65.01;99864.75;5003036;28;20056;-71
2021/09/27 05:23:52;;;;;;;37.55;17.50;;;;;;;15.14;64.57;99858.88;5004696;28;20469;-72
2021/09/27 05:26:20;;;;;;;37.20;14.23;;;;;;;15.31;64.40;99851.28;4991584;28;20041;-70
2021/09/27 05:28:58;;;;;;;45.03;16.38;;;;;;;15.53;64.04;99849.09;5004940;28;20029;-70
2021/09/27 05:32:03;;;;;;;39.25;15.65;;;;;;;15.51;63.97;99843.00;5003704;28;20030;-70
2021/09/27 05:34:35;;;;;;;39.33;16.00;;;;;;;15.28;64.38;99844.34;5003931;28;20030;-70
2021/09/27 05:37:00;;;;;;;45.33;21.13;;;;;;;15.19;65.55;99843.69;5004719;28;20565;-71
2021/09/27 05:39:47;;;;;;;54.63;21.58;;;;;;;15.57;64.77;99852.81;5001263;28;20112;-71
2021/09/27 05:42:25;;;;;;;19.85;11.63;;;;;;;15.63;64.47;99853.38;5003403;28;20034;-71
2021/09/27 05:45:06;;;;;;;26.25;9.40;;;;;;;15.75;64.51;99847.66;5006108;28;20518;-71
2021/09/27 05:48:07;;;;;;;11.52;9.38;;;;;;;16.00;63.37;99842.75;5004016;28;20049;-71
2021/09/27 05:50:34;;;;;;;12.85;8.80;;;;;;;15.99;63.91;99846.75;5007144;28;20018;-71
2021/09/27 05:53:36;;;;;;;10.75;7.70;;;;;;;16.20;63.42;99847.66;5010284;28;20556;-71
2021/09/27 05:56:24;;;;;;;16.27;8.95;;;;;;;16.33;63.35;99837.91;5004661;28;20038;-71
2021/09/27 05:58:57;;;;;;;14.38;8.13;;;;;;;16.44;62.82;99828.88;5005415;28;20057;-71
2021/09/27 06:01:42;;;;;;;11.07;7.68;;;;;;;16.60;62.06;99837.34;4991646;28;20026;-71
2021/09/27 06:04:20;;;;;;;12.80;8.02;;;;;;;16.61;62.52;99839.78;5003480;28;20026;-71
2021/09/27 06:07:10;;;;;;;16.92;9.25;;;;;;;16.67;61.93;99846.78;5003484;28;20562;-70
2021/09/27 06:10:09;;;;;;;10.75;7.70;;;;;;;16.83;60.68;99851.56;5002840;28;20421;-71
2021/09/27 06:12:55;;;;;;;13.85;8.45;;;;;;;16.92;60.33;99852.19;5004297;28;20034;-71
2021/09/27 06:15:26;;;;;;;13.10;9.23;;;;;;;17.02;59.79;99845.16;5003220;28;20044;-72
2021/09/27 06:18:08;;;;;;;12.85;8.77;;;;;;;17.13;60.02;99851.03;5009002;28;20037;-71
2021/09/27 06:20:49;;;;;;;18.17;8.68;;;;;;;17.22;58.78;99854.47;5001352;28;20504;-73
2021/09/27 06:23:47;;;;;;;11.30;6.65;;;;;;;17.40;58.72;99862.53;5002681;28;20060;-70
2021/09/27 06:26:14;;;;;;;8.90;6.15;;;;;;;17.52;57.94;99862.38;5007115;28;20544;-70
2021/09/27 06:29:00;;;;;;;14.05;6.75;;;;;;;17.70;57.23;99876.03;5003178;28;20041;-70
2021/09/27 06:31:36;;;;;;;8.88;6.55;;;;;;;17.79;57.45;99870.13;5002363;28;20061;-70
2021/09/27 06:34:14;;;;;;;10.15;6.82;;;;;;;17.94;56.77;99872.06;5003767;28;20789;-72
2021/09/27 06:36:40;;;;;;;10.23;6.72;;;;;;;17.93;56.90;99869.59;5009742;28;20018;-72
2021/09/27 06:39:11;;;;;;;10.90;7.47;;;;;;;18.08;57.48;99877.19;5012487;28;20030;-72
2021/09/27 06:41:39;;;;;;;11.63;8.05;;;;;;;18.07;57.33;99878.38;5011697;28;20481;-72
2021/09/27 06:44:04;;;;;;;12.30;7.63;;;;;;;18.05;56.93;99877.13;5012512;28;20195;-72
2021/09/27 06:46:31;;;;;;;9.63;7.53;;;;;;;18.17;56.95;99871.28;5013947;28;20105;-72
2021/09/27 06:48:56;;;;;;;10.23;7.82;;;;;;;18.14;56.44;99874.06;5014747;28;20498;-72
2021/09/27 06:51:22;;;;;;;12.95;8.20;;;;;;;18.34;55.80;99875.63;5009355;28;20026;-72
2021/09/27 06:53:47;;;;;;;12.65;8.48;;;;;;;18.49;55.37;99873.03;5001307;28;20030;-73
2021/09/27 06:56:13;;;;;;;14.25;8.45;;;;;;;18.55;55.07;99871.50;5006686;28;20423;-73
2021/09/27 06:58:39;;;;;;;11.55;8.32;;;;;;;18.64;54.35;99872.06;5006686;28;20109;-72
2021/09/27 07:01:04;;;;;;;17.45;8.82;;;;;;;18.73;53.89;99870.97;5006005;28;20079;-72
2021/09/27 07:03:30;;;;;;;10.98;8.23;;;;;;;18.75;53.29;99874.25;5013231;28;20471;-72
2021/09/27 07:05:56;;;;;;;13.20;7.82;;;;;;;18.81;53.77;99858.53;5005178;28;20021;-72
2021/09/27 07:08:23;;;;;;;10.82;7.68;;;;;;;18.92;53.33;99864.38;5006093;28;20037;-72
2021/09/27 07:10:50;;;;;;;15.55;8.02;;;;;;;19.09;52.14;99865.88;5006866;28;20104;-71
2021/09/27 07:13:16;;;;;;;13.40;8.95;;;;;;;19.10;52.59;99861.00;5014832;28;20080;-71
2021/09/27 07:15:43;;;;;;;14.23;8.10;;;;;;;19.03;52.66;99858.88;5011674;28;20022;-73
2021/09/27 07:18:08;;;;;;;14.20;8.48;;;;;;;19.05;52.97;99857.31;5003724;28;20034;-73
2021/09/27 07:20:34;;;;;;;26.40;9.57;;;;;;;19.24;52.33;99854.72;5009718;28;20499;-73
2021/09/27 07:23:00;;;;;;;11.60;8.35;;;;;;;19.32;52.08;99856.44;5016819;28;20024;-73
2021/09/27 07:25:28;;;;;;;13.52;8.40;;;;;;;19.50;51.64;99857.47;5007327;28;20462;-73
2021/09/27 07:27:55;;;;;;;13.95;8.05;;;;;;;19.62;51.83;99858.41;5009187;28;20030;-73
2021/09/27 07:30:21;;;;;;;13.70;8.60;;;;;;;19.71;50.72;99852.41;5004538;28;20030;-73
2021/09/27 07:32:47;;;;;;;14.80;8.70;;;;;;;19.54;51.65;99863.19;5013589;28;20018;-76
2021/09/27 07:35:18;;;;;;;10.57;8.27;;;;;;;19.72;50.65;99857.72;5009200;28;20544;-70
2021/09/27 07:37:44;;;;;;;27.73;9.85;;;;;;;19.87;51.50;99853.03;5011497;28;20033;-69
2021/09/27 07:40:14;;;;;;;12.93;8.20;;;;;;;20.09;50.29;99858.13;5004089;28;20026;-69
2021/09/27 07:42:41;;;;;;;13.55;7.85;;;;;;;20.03;50.13;99852.81;5005166;28;20157;-69
2021/09/27 07:45:08;;;;;;;16.05;8.43;;;;;;;19.95;50.36;99847.44;5009244;28;20021;-69
2021/09/27 07:47:34;;;;;;;25.88;10.25;;;;;;;20.02;50.27;99848.31;5000276;28;20030;-70
2021/09/27 07:49:59;;;;;;;16.67;9.05;;;;;;;20.11;50.82;99850.03;5004724;28;20026;-69
2021/09/27 07:52:25;;;;;;;9.95;8.48;;;;;;;20.31;50.35;99844.91;5007868;28;20029;-70
2021/09/27 07:54:51;;;;;;;18.92;9.55;;;;;;;20.40;49.17;99844.59;5008875;28;20025;-71
2021/09/27 07:57:17;;;;;;;13.63;9.63;;;;;;;20.49;49.77;99847.91;5008896;28;20029;-69
2021/09/27 07:59:43;;;;;;;12.02;8.38;;;;;;;20.50;49.69;99843.84;5012137;28;20033;-69
2021/09/27 08:02:08;;;;;;;16.20;8.70;;;;;;;20.60;49.24;99848.00;5007359;28;20141;-71
2021/09/27 08:04:35;;;;;;;12.75;8.68;;;;;;;20.71;48.67;99842.38;5011168;28;20450;-69
2021/09/27 08:07:01;;;;;;;15.30;9.07;;;;;;;20.83;48.77;99827.88;5009862;28;20514;-69
2021/09/27 08:09:27;;;;;;;18.65;9.35;;;;;;;20.92;48.19;99836.03;5008508;28;20500;-69
2021/09/27 08:11:52;;;;;;;13.68;8.02;;;;;;;21.03;48.78;99838.97;5020533;28;20033;-70
2021/09/27 08:14:18;;;;;;;14.50;8.23;;;;;;;21.09;47.51;99834.50;5012676;28;20113;-71
2021/09/27 08:16:44;;;;;;;11.68;7.82;;;;;;;21.21;47.82;99835.38;5002871;28;20033;-69
2021/09/27 08:19:10;;;;;;;17.35;7.38;;;;;;;21.37;47.99;99833.03;5013248;28;20025;-69
2021/09/27 08:21:35;;;;;;;11.95;7.72;;;;;;;21.48;47.12;99827.38;5008918;28;20061;-70
2021/09/27 08:24:01;;;;;;;12.82;7.68;;;;;;;21.59;46.84;99830.22;5005246;28;20559;-70
2021/09/27 08:26:26;;;;;;;18.20;9.05;;;;;;;21.70;46.55;99833.16;5008820;28;20488;-71
2021/09/27 08:28:52;;;;;;;8.48;7.53;;;;;;;21.78;46.73;99828.28;5011551;28;20351;-70
2021/09/27 08:31:20;;;;;;;8.82;7.00;;;;;;;21.72;46.19;99830.72;5012948;28;20086;-71
2021/09/27 08:33:48;;;;;;;14.65;7.63;;;;;;;21.70;46.37;99828.25;5003872;28;20029;-70
2021/09/27 08:36:16;;;;;;;12.13;8.30;;;;;;;21.86;46.61;99822.19;5008233;28;20021;-70
2021/09/27 08:38:42;;;;;;;10.40;7.03;;;;;;;22.00;46.79;99820.59;5009745;28;20105;-69
2021/09/27 08:41:24;;;;;;;15.63;8.32;;;;;;;22.22;46.84;99812.06;5006250;28;20037;-69
2021/09/27 08:43:57;;;;;;;13.38;7.93;;;;;;;22.29;46.17;99807.16;5004167;28;20133;-68
2021/09/27 08:46:33;;;;;;;10.95;7.72;;;;;;;22.36;45.74;99806.34;5005254;28;20388;-69
2021/09/27 08:49:05;;;;;;;15.32;7.43;;;;;;;22.54;44.88;99805.56;5003353;28;20030;-69
2021/09/27 08:51:34;;;;;;;9.07;7.40;;;;;;;22.67;44.81;99803.09;5012025;28;20037;-69
2021/09/27 08:54:02;;;;;;;9.55;7.07;;;;;;;22.89;44.70;99806.72;5005928;28;20034;-69
2021/09/27 08:56:35;;;;;;;14.05;7.65;;;;;;;22.83;44.48;99791.25;5005203;28;20038;-69
2021/09/27 08:59:03;;;;;;;20.08;8.48;;;;;;;22.84;44.47;99796.53;5010641;28;20467;-69
2021/09/27 09:01:43;;;;;;;11.52;7.05;;;;;;;22.83;44.67;99789.22;5014934;28;20086;-69
2021/09/27 09:04:40;;;;;;;9.93;8.13;;;;;;;22.72;44.45;99792.06;5009902;28;20462;-69
2021/09/27 09:07:12;;;;;;;13.05;7.85;;;;;;;22.72;44.74;99788.44;5005263;28;20034;-70
2021/09/27 09:09:41;;;;;;;11.40;6.57;;;;;;;22.89;44.23;99785.94;5003789;28;20069;-70
2021/09/27 09:12:31;;;;;;;17.90;6.88;;;;;;;23.09;43.87;99778.53;4999917;28;20517;-70
2021/09/27 09:15:06;;;;;;;9.90;7.05;;;;;;;23.19;43.15;99778.91;5008300;28;20033;-71
2021/09/27 09:17:40;;;;;;;10.23;6.82;;;;;;;23.23;42.66;99771.97;5000608;28;20060;-70
2021/09/27 09:20:21;;;;;;;13.82;7.20;;;;;;;22.77;44.30;99779.44;4999121;28;20527;-71
2021/09/27 09:22:47;;;;;;;11.65;7.55;;;;;;;22.91;43.22;99772.06;5005838;28;20022;-72
2021/09/27 09:25:31;;;;;;;15.73;7.60;;;;;;;22.86;43.63;99759.03;5005867;28;20041;-69
2021/09/27 09:27:57;;;;;;;12.95;6.72;;;;;;;22.94;43.53;99760.66;5004069;28;20784;-68
2021/09/27 09:30:33;;;;;;;12.05;6.90;;;;;;;23.40;42.96;99755.97;4999322;28;20092;-69
2021/09/27 09:32:59;;;;;;;10.73;7.55;;;;;;;23.67;42.70;99752.56;5013978;28;20033;-69
2021/09/27 09:35:32;;;;;;;21.20;8.25;;;;;;;23.64;43.20;99747.66;5005831;28;20097;-70
2021/09/27 09:38:00;;;;;;;13.07;8.02;;;;;;;23.75;42.03;99753.31;5017726;28;20025;-69
2021/09/27 09:40:50;;;;;;;11.10;9.40;;;;;;;24.03;42.63;99751.50;5016743;28;20029;-69
2021/09/27 09:43:30;;;;;;;18.33;10.65;;;;;;;24.16;41.27;99739.53;5009268;28;20046;-70
2021/09/27 09:46:07;;;;;;;11.10;7.78;;;;;;;24.13;41.99;99734.69;5004056;28;20062;-70
2021/09/27 09:48:33;;;;;;;10.93;6.97;;;;;;;24.11;41.06;99735.94;5009736;28;20053;-69
2021/09/27 09:51:19;;;;;;;9.30;6.80;;;;;;;24.14;40.99;99733.44;5004639;28;20090;-71
2021/09/27 09:54:04;;;;;;;15.80;7.60;;;;;;;24.03;40.72;99724.97;5003693;28;20026;-69
2021/09/27 09:56:34;;;;;;;12.52;6.95;;;;;;;23.95;40.80;99724.19;5013239;28;20104;-69
2021/09/27 09:59:13;;;;;;;19.63;8.35;;;;;;;23.82;41.68;99726.75;5012314;28;20056;-69
2021/09/27 10:01:38;;;;;;;11.30;7.22;;;;;;;23.74;42.74;99720.28;5007394;28;20052;-70
2021/09/27 10:04:21;;;;;;;14.27;7.47;;;;;;;23.72;41.66;99722.75;5014784;28;20026;-69
2021/09/27 10:06:58;;;;;;;9.30;7.80;;;;;;;23.85;42.00;99720.19;5005111;28;20059;-70
2021/09/27 10:09:32;;;;;;;9.90;6.68;;;;;;;24.05;42.18;99722.50;5008737;28;20029;-69
2021/09/27 10:12:07;;;;;;;9.48;6.93;;;;;;;24.01;41.96;99718.84;5011012;28;20069;-69
2021/09/27 10:14:42;;;;;;;13.68;7.50;;;;;;;24.10;41.69;99717.16;5014294;28;20112;-69
2021/09/27 10:17:26;;;;;;;15.90;7.43;;;;;;;24.14;42.21;99716.31;5012303;28;20026;-69
2021/09/27 10:20:10;;;;;;;22.27;7.88;;;;;;;24.29;41.71;99717.00;5013049;28;20034;-69
2021/09/27 10:22:42;;;;;;;21.48;7.57;;;;;;;24.36;40.87;99711.19;5025143;28;20057;-70
2021/09/27 10:25:33;;;;;;;14.25;9.40;;;;;;;24.63;40.61;99707.66;5024695;28;20013;-69
2021/09/27 10:28:02;;;;;;;16.85;6.70;;;;;;;24.91;40.10;99705.69;5007875;28;20073;-69
2021/09/27 10:30:41;;;;;;;11.63;7.10;;;;;;;25.01;39.23;99696.16;5014572;28;20034;-70
2021/09/27 10:33:31;;;;;;;8.82;6.95;;;;;;;25.04;39.68;99701.00;5015552;28;20073;-69
2021/09/27 10:36:03;;;;;;;18.90;7.80;;;;;;;25.15;39.56;99691.47;5012400;28;20036;-70
2021/09/27 10:38:42;;;;;;;11.98;7.18;;;;;;;25.12;39.49;99678.03;5014262;28;20087;-69
2021/09/27 10:41:31;;;;;;;11.27;7.50;;;;;;;25.25;38.19;99676.22;5013107;28;20030;-69
2021/09/27 10:44:03;;;;;;;11.13;7.50;;;;;;;25.46;38.65;99677.09;4998545;28;20057;-69
2021/09/27 10:46:41;;;;;;;11.82;7.43;;;;;;;25.58;37.06;99667.97;5006672;28;20018;-68
2021/09/27 10:49:28;;;;;;;16.48;6.95;;;;;;;25.83;36.55;99661.00;5012008;28;20021;-68
2021/09/27 10:52:06;;;;;;;12.05;7.82;;;;;;;25.77;37.38;99657.81;5011331;28;20096;-69
2021/09/27 10:54:41;;;;;;;9.48;6.97;;;;;;;25.98;37.20;99655.81;5005934;28;20351;-72
2021/09/27 10:57:18;;;;;;;11.98;7.68;;;;;;;26.19;36.69;99648.91;5002878;28;20517;-73
2021/09/27 10:59:55;;;;;;;16.92;8.23;;;;;;;26.17;36.58;99651.38;5007611;28;20034;-73
2021/09/27 11:02:21;;;;;;;15.20;7.90;;;;;;;26.13;35.59;99646.97;5005691;28;20452;-73
2021/09/27 11:04:55;;;;;;;12.10;8.18;;;;;;;25.98;35.48;99640.69;5015750;28;20034;-73
2021/09/27 11:07:41;;;;;;;11.45;8.02;;;;;;;25.98;36.69;99643.56;5010532;28;20048;-73
2021/09/27 11:10:37;;;;;;;15.05;7.32;;;;;;;26.12;36.50;99642.47;5010121;28;20026;-73
2021/09/27 11:13:03;;;;;;;10.48;7.25;;;;;;;26.26;35.59;99641.41;5026724;28;20518;-73
2021/09/27 11:15:33;;;;;;;11.00;6.47;;;;;;;26.30;35.77;99630.69;5005722;28;20026;-73
2021/09/27 11:18:15;;;;;;;10.07;7.47;;;;;;;26.77;34.47;99624.78;5006159;28;20026;-73
2021/09/27 11:20:49;;;;;;;15.38;7.00;;;;;;;26.86;34.06;99623.38;5010458;28;20057;-73
2021/09/27 11:23:35;;;;;;;13.13;8.10;;;;;;;26.93;34.32;99617.53;5022605;28;20792;-73
2021/09/27 11:26:11;;;;;;;11.93;8.70;;;;;;;26.89;35.38;99608.16;5004488;28;20037;-73
2021/09/27 11:28:45;;;;;;;15.20;7.07;;;;;;;26.89;35.29;99603.25;5010618;28;20025;-73
2021/09/27 11:31:25;;;;;;;14.68;7.20;;;;;;;26.84;34.38;99602.94;5008385;28;20480;-73
2021/09/27 11:33:57;;;;;;;15.68;7.13;;;;;;;26.80;34.37;99593.63;5003408;28;20212;-73
2021/09/27 11:36:31;;;;;;;11.55;6.65;;;;;;;26.94;34.65;99587.56;5004962;28;20084;-73
2021/09/27 11:39:06;;;;;;;9.85;5.82;;;;;;;26.85;34.18;99595.94;5027308;28;20025;-73
2021/09/27 11:41:35;;;;;;;6.78;6.07;;;;;;;27.01;34.86;99590.25;5006443;28;20038;-73
2021/09/27 11:44:24;;;;;;;7.90;6.40;;;;;;;27.16;33.94;99589.94;5003505;28;20206;-73
2021/09/27 11:47:09;;;;;;;12.25;6.22;;;;;;;27.05;34.01;99582.38;5000911;28;20030;-73
2021/09/27 11:50:09;;;;;;;9.48;6.00;;;;;;;27.01;33.80;99578.00;5006922;28;20028;-72
2021/09/27 11:52:53;;;;;;;;;;;;;;;26.88;34.13;99575.00;5007647;28;20037;-72
2021/09/27 11:55:32;;;;;;;16.60;6.45;;;;;;;26.86;33.40;99574.59;5006212;28;20327;-72
2021/09/27 11:58:13;;;;;;;24.70;7.13;;;;;;;26.90;34.34;99572.47;5006653;28;20448;-72
2021/09/27 12:00:54;;;;;;;23.00;7.50;;;;;;;27.02;33.56;99568.91;5010814;28;20400;-72
2021/09/27 12:03:43;;;;;;;15.80;6.97;;;;;;;27.14;33.91;99563.72;5011659;28;20033;-73
2021/09/27 12:06:33;;;;;;;20.25;10.38;;;;;;;27.10;32.80;99560.13;5000989;28;20080;-73
2021/09/27 12:09:16;;;;;;;19.45;9.43;;;;;;;27.03;33.84;99556.22;5003322;28;20018;-71